createdAt,value
2018-07-14T00:01:55.186Z,67.74
2018-07-14T00:04:24.274Z,68.10
2018-07-14T00:06:53.535Z,67.16
2018-07-14T00:09:22.612Z,67.70
2018-07-14T00:11:51.727Z,67.86
2018-07-14T00:14:20.873Z,68.42
2018-07-14T00:16:50.789Z,68.04
2018-07-14T00:19:19.867Z,68.69
2018-07-14T00:21:48.921Z,69.74
2018-07-14T00:24:18.048Z,69.05
2018-07-14T00:26:47.048Z,68.35
2018-07-14T00:29:16.148Z,68.27
2018-07-14T00:31:45.225Z,68.60
2018-07-14T00:34:14.324Z,68.63
2018-07-14T00:36:43.424Z,68.86
2018-07-14T00:39:12.592Z,68.53
2018-07-14T00:41:41.677Z,68.67
2018-07-14T00:44:10.754Z,69.15
2018-07-14T00:46:39.889Z,69.56
2018-07-14T00:49:08.982Z,69.34
2018-07-14T00:51:38.060Z,70.02
2018-07-14T00:54:07.167Z,70.07
2018-07-14T00:56:36.283Z,70.67
2018-07-14T00:59:05.378Z,70.15
2018-07-14T01:01:34.523Z,70.36
2018-07-14T01:04:03.580Z,70.34
2018-07-14T01:06:32.676Z,70.75
2018-07-14T01:09:01.752Z,71.02
2018-07-14T01:11:30.884Z,70.39
2018-07-14T01:13:59.940Z,70.09
2018-07-14T01:16:29.102Z,70.73
2018-07-14T01:18:58.164Z,70.36
2018-07-14T01:21:27.316Z,71.20
2018-07-14T01:23:56.425Z,71.68
2018-07-14T01:26:25.497Z,71.34
2018-07-14T01:28:54.565Z,71.29
2018-07-14T01:31:23.745Z,71.38
2018-07-14T01:33:52.826Z,71.77
2018-07-14T01:36:21.905Z,71.43
2018-07-14T01:38:50.965Z,72.02
2018-07-14T01:41:20.117Z,72.55
2018-07-14T01:43:49.197Z,72.14
2018-07-14T01:46:18.382Z,72.55
2018-07-14T01:48:47.487Z,71.73
2018-07-14T01:51:16.574Z,71.87
2018-07-14T01:53:45.626Z,72.65
2018-07-14T01:56:14.747Z,72.90
2018-07-14T01:58:43.870Z,72.49
2018-07-14T02:01:12.936Z,72.97
2018-07-14T02:03:42.024Z,72.90
2018-07-14T02:06:11.219Z,74.14
2018-07-14T02:08:40.280Z,73.21
2018-07-14T02:11:09.354Z,72.64
2018-07-14T02:13:38.442Z,73.24
2018-07-14T02:16:07.857Z,72.80
2018-07-14T02:18:36.960Z,72.57
2018-07-14T02:21:06.266Z,73.28
2018-07-14T02:23:35.340Z,73.22
2018-07-14T02:26:04.409Z,72.46
2018-07-14T02:28:33.498Z,72.48
2018-07-14T02:31:02.662Z,72.30
2018-07-14T02:33:31.761Z,72.81
2018-07-14T02:36:00.838Z,72.66
2018-07-14T02:38:29.943Z,72.54
2018-07-14T02:40:59.097Z,72.73
2018-07-14T02:43:28.242Z,73.30
2018-07-14T02:45:57.393Z,73.69
2018-07-14T02:48:26.489Z,74.13
2018-07-14T02:50:55.561Z,73.72
2018-07-14T02:53:24.633Z,73.18
2018-07-14T02:55:53.773Z,72.22
2018-07-14T02:58:22.853Z,72.74
2018-07-14T03:00:51.926Z,73.14
2018-07-14T03:03:21.086Z,73.86
2018-07-14T03:05:50.185Z,73.89
2018-07-14T03:08:19.253Z,74.13
2018-07-14T03:10:48.337Z,74.47
2018-07-14T03:13:17.405Z,73.84
2018-07-14T03:15:46.489Z,74.54
2018-07-14T03:18:15.616Z,74.33
2018-07-14T03:20:44.704Z,73.54
2018-07-14T03:23:13.835Z,74.13
2018-07-14T03:25:42.913Z,73.87
2018-07-14T03:28:11.972Z,73.85
2018-07-14T03:30:41.151Z,74.91
2018-07-14T03:33:10.359Z,75.04
2018-07-14T03:35:39.428Z,74.77
2018-07-14T03:38:08.476Z,75.24
2018-07-14T03:40:37.560Z,74.70
2018-07-14T03:43:06.632Z,75.47
2018-07-14T03:45:35.734Z,74.63
2018-07-14T03:48:04.788Z,75.10
2018-07-14T03:50:33.864Z,74.93
2018-07-14T03:53:02.930Z,76.15
2018-07-14T03:55:32.065Z,76.10
2018-07-14T03:58:01.124Z,75.63
2018-07-14T04:00:30.271Z,76.02
2018-07-14T04:02:59.354Z,75.50
2018-07-14T04:05:28.442Z,75.29
2018-07-14T04:07:57.589Z,75.07
2018-07-14T04:10:26.810Z,75.56
2018-07-14T04:12:55.882Z,75.84
2018-07-14T04:15:24.945Z,76.70
2018-07-14T04:18:05.593Z,76.32
2018-07-14T04:20:36.161Z,76.66
2018-07-14T04:23:05.267Z,76.15
2018-07-14T04:25:34.322Z,75.75
2018-07-14T04:28:03.553Z,75.69
2018-07-14T04:30:32.629Z,75.51
2018-07-14T04:33:01.705Z,75.49
2018-07-14T04:35:30.763Z,75.88
2018-07-14T04:37:59.936Z,74.81
2018-07-14T04:40:28.992Z,74.50
2018-07-14T04:42:58.076Z,74.11
2018-07-14T04:45:27.152Z,71.09
2018-07-14T04:47:56.249Z,70.36
2018-07-14T04:50:25.304Z,70.07
2018-07-14T04:52:54.378Z,69.09
2018-07-14T04:55:23.548Z,68.09
2018-07-14T04:57:52.624Z,68.33
2018-07-14T05:00:21.732Z,67.57
2018-07-14T05:02:50.814Z,67.36
2018-07-14T05:05:19.872Z,66.94
2018-07-14T05:07:48.926Z,66.41
2018-07-14T05:10:18.074Z,66.92
2018-07-14T05:12:47.118Z,66.10
2018-07-14T05:15:16.257Z,66.39
2018-07-14T05:17:45.347Z,65.98
2018-07-14T05:20:14.526Z,66.15
2018-07-14T05:22:43.577Z,65.79
2018-07-14T05:25:12.720Z,65.76
2018-07-14T05:27:41.769Z,65.28
2018-07-14T05:30:10.847Z,64.35
2018-07-14T05:32:39.893Z,65.09
2018-07-14T05:35:08.992Z,65.17
2018-07-14T05:37:38.088Z,64.43
2018-07-14T05:40:07.189Z,64.40
2018-07-14T05:42:36.266Z,64.60
2018-07-14T05:45:05.376Z,64.33
2018-07-14T05:47:34.444Z,64.06
2018-07-14T05:50:03.521Z,63.78
2018-07-14T05:52:33.760Z,64.52
2018-07-14T05:55:02.886Z,64.91
2018-07-14T05:57:31.930Z,64.71
2018-07-14T06:00:01.014Z,65.05
2018-07-14T06:02:30.145Z,65.61
2018-07-14T06:04:59.249Z,65.16
2018-07-14T06:07:28.281Z,64.98
2018-07-14T06:09:57.421Z,64.63
2018-07-14T06:12:26.497Z,64.93
2018-07-14T06:14:55.613Z,65.14
2018-07-14T06:17:24.799Z,64.78
2018-07-14T06:19:53.785Z,65.53
2018-07-14T06:22:22.853Z,65.18
2018-07-14T06:24:51.936Z,64.76
2018-07-14T06:27:21.013Z,65.15
2018-07-14T06:29:50.059Z,65.79
2018-07-14T06:32:19.209Z,63.77
2018-07-14T06:34:48.269Z,64.46
2018-07-14T06:37:17.531Z,63.88
2018-07-14T06:39:46.597Z,63.50
2018-07-14T06:42:15.717Z,63.75
2018-07-14T06:44:44.786Z,62.98
2018-07-14T06:47:13.888Z,61.51
2018-07-14T06:49:42.954Z,62.66
2018-07-14T06:52:12.060Z,62.13
2018-07-14T06:54:41.506Z,62.18
2018-07-14T06:57:10.567Z,61.66
2018-07-14T06:59:39.627Z,62.14
2018-07-14T07:02:08.726Z,60.70
2018-07-14T07:04:37.834Z,60.83
2018-07-14T07:07:07.215Z,61.45
2018-07-14T07:09:36.278Z,61.05
2018-07-14T07:12:05.344Z,62.10
2018-07-14T07:14:34.429Z,62.52
2018-07-14T07:17:03.508Z,61.32
2018-07-14T07:19:32.604Z,61.05
2018-07-14T07:22:01.710Z,59.07
2018-07-14T07:24:30.802Z,58.22
2018-07-14T07:26:59.865Z,58.92
2018-07-14T07:29:28.938Z,58.10
2018-07-14T07:31:58.010Z,58.06
2018-07-14T07:34:27.083Z,58.18
2018-07-14T07:36:56.199Z,58.03
2018-07-14T07:39:25.237Z,56.58
2018-07-14T07:41:54.353Z,54.62
2018-07-14T07:44:23.441Z,53.90
2018-07-14T07:46:52.595Z,55.33
2018-07-14T07:49:21.690Z,54.46
2018-07-14T07:51:52.125Z,54.47
2018-07-14T07:54:21.210Z,54.93
2018-07-14T07:56:50.334Z,54.86
2018-07-14T07:59:19.410Z,53.18
2018-07-14T08:01:48.547Z,52.13
2018-07-14T08:04:17.688Z,52.61
2018-07-14T08:06:46.772Z,52.02
2018-07-14T08:09:16.024Z,52.39
2018-07-14T08:11:45.098Z,51.15
2018-07-14T08:14:14.290Z,52.09
2018-07-14T08:16:43.382Z,49.54
2018-07-14T08:19:12.542Z,50.29
2018-07-14T08:21:41.673Z,50.29
2018-07-14T08:24:10.734Z,49.58
2018-07-14T08:26:39.882Z,51.17
2018-07-14T08:29:08.944Z,50.37
2018-07-14T08:31:38.152Z,49.40
2018-07-14T08:34:08.232Z,47.84
2018-07-14T08:36:37.359Z,47.78
2018-07-14T08:39:07.422Z,47.48
2018-07-14T08:41:36.506Z,46.94
2018-07-14T08:44:05.593Z,47.52
2018-07-14T08:46:34.721Z,46.29
2018-07-14T08:49:03.841Z,47.08
2018-07-14T08:51:33.004Z,47.94
2018-07-14T08:54:01.977Z,48.01
2018-07-14T08:56:31.161Z,45.49
2018-07-14T08:59:00.197Z,46.40
2018-07-14T09:01:29.287Z,47.26
2018-07-14T09:03:58.338Z,46.47
2018-07-14T09:06:27.505Z,45.33
2018-07-14T09:08:56.577Z,46.28
2018-07-14T09:11:25.664Z,45.13
2018-07-14T09:13:54.813Z,44.42
2018-07-14T09:16:24.286Z,46.20
2018-07-14T09:18:53.322Z,44.47
2018-07-14T09:21:22.509Z,44.50
2018-07-14T09:23:51.590Z,47.05
2018-07-14T09:26:20.769Z,45.00
2018-07-14T09:28:50.350Z,45.22
2018-07-14T09:31:19.461Z,43.69
2018-07-14T09:33:48.602Z,44.37
2018-07-14T09:36:17.669Z,45.61
2018-07-14T09:38:46.725Z,47.20
2018-07-14T09:41:15.899Z,45.46
2018-07-14T09:43:44.929Z,44.20
2018-07-14T09:46:13.980Z,44.06
2018-07-14T09:48:43.061Z,43.23
2018-07-14T09:51:12.128Z,42.98
2018-07-14T09:53:41.204Z,42.39
2018-07-14T09:56:10.381Z,44.25
2018-07-14T09:58:39.470Z,42.01
2018-07-14T10:01:09.984Z,42.27
2018-07-14T10:03:39.786Z,43.20
2018-07-14T10:06:09.004Z,41.48
2018-07-14T10:08:38.090Z,41.86
2018-07-14T10:11:07.244Z,42.65
2018-07-14T10:13:36.310Z,41.96
2018-07-14T10:16:05.470Z,42.49
2018-07-14T10:18:34.544Z,44.09
2018-07-14T10:21:03.700Z,42.39
2018-07-14T10:23:32.753Z,41.32
2018-07-14T10:26:01.865Z,40.84
2018-07-14T10:28:30.980Z,40.75
2018-07-14T10:31:00.173Z,39.92
2018-07-14T10:33:29.326Z,39.76
2018-07-14T10:35:58.366Z,40.46
2018-07-14T10:38:27.533Z,40.84
2018-07-14T10:40:56.745Z,42.11
2018-07-14T10:43:25.858Z,41.14
2018-07-14T10:45:55.009Z,41.35
2018-07-14T10:48:24.039Z,41.52
2018-07-14T10:50:53.130Z,41.44
2018-07-14T10:53:22.329Z,41.15
2018-07-14T10:55:51.532Z,40.99
2018-07-14T10:58:20.614Z,40.92
2018-07-14T11:00:49.728Z,40.83
2018-07-14T11:03:18.919Z,42.32
2018-07-14T11:05:48.325Z,41.14
2018-07-14T11:08:17.449Z,39.95
2018-07-14T11:10:46.598Z,40.90
2018-07-14T11:13:15.680Z,41.43
2018-07-14T11:15:44.804Z,40.36
2018-07-14T11:18:14.091Z,41.16
2018-07-14T11:20:43.100Z,43.54
2018-07-14T11:23:12.280Z,41.58
2018-07-14T11:25:41.331Z,42.19
2018-07-14T11:28:10.418Z,42.00
2018-07-14T11:30:39.549Z,41.59
2018-07-14T11:33:15.318Z,41.98
2018-07-14T11:35:44.369Z,41.79
2018-07-14T11:38:13.507Z,43.06
2018-07-14T11:40:42.532Z,43.40
2018-07-14T11:43:11.604Z,43.14
2018-07-14T11:45:40.791Z,45.46
2018-07-14T11:48:09.872Z,42.06
2018-07-14T11:50:39.094Z,42.07
2018-07-14T11:53:08.180Z,38.82
2018-07-14T11:55:37.438Z,39.47
2018-07-14T11:58:06.504Z,40.82
2018-07-14T12:00:35.566Z,38.09
2018-07-14T12:03:04.798Z,38.60
2018-07-14T12:05:33.996Z,39.85
2018-07-14T12:08:03.097Z,38.34
2018-07-14T12:10:32.221Z,39.81
2018-07-14T12:13:01.347Z,40.06
2018-07-14T12:15:30.465Z,41.24
2018-07-14T12:17:59.545Z,42.82
2018-07-14T12:20:28.674Z,43.24
2018-07-14T12:22:57.717Z,43.51
2018-07-14T12:25:26.790Z,44.00
2018-07-14T12:27:55.830Z,43.82
2018-07-14T12:30:24.981Z,44.35
2018-07-14T12:32:53.973Z,45.55
2018-07-14T12:35:23.084Z,44.69
2018-07-14T12:37:52.138Z,44.49
2018-07-14T12:40:21.205Z,41.15
2018-07-14T12:42:50.249Z,40.98
2018-07-14T12:45:19.333Z,37.99
2018-07-14T12:47:48.419Z,37.92
2018-07-14T12:50:17.492Z,36.27
2018-07-14T12:52:46.571Z,35.47
2018-07-14T12:55:15.637Z,35.30
2018-07-14T12:57:44.849Z,34.13
2018-07-14T13:00:14.017Z,34.53
2018-07-14T13:02:43.040Z,33.17
2018-07-14T13:05:12.209Z,32.94
2018-07-14T13:07:41.399Z,33.20
2018-07-14T13:10:10.443Z,34.84
2018-07-14T13:12:39.572Z,31.84
2018-07-14T13:15:08.621Z,33.88
2018-07-14T13:17:37.838Z,31.82
2018-07-14T13:20:07.049Z,29.86
2018-07-14T13:22:36.215Z,30.10
2018-07-14T13:25:05.401Z,30.85
2018-07-14T13:27:34.568Z,30.46
2018-07-14T13:30:03.779Z,30.96
2018-07-14T13:32:32.827Z,31.13
2018-07-14T13:35:01.989Z,32.78
2018-07-14T13:37:31.116Z,34.26
2018-07-14T13:40:00.211Z,34.82
2018-07-14T13:42:29.312Z,36.03
2018-07-14T13:44:58.488Z,35.32
2018-07-14T13:47:27.686Z,32.49
2018-07-14T13:49:56.700Z,33.24
2018-07-14T13:52:25.880Z,31.14
2018-07-14T13:54:55.794Z,31.48
2018-07-14T13:57:25.010Z,31.23
2018-07-14T13:59:54.096Z,30.42
2018-07-14T14:02:23.191Z,29.69
2018-07-14T14:04:52.309Z,31.08
2018-07-14T14:07:21.397Z,28.84
2018-07-14T14:09:50.590Z,31.35
2018-07-14T14:12:19.687Z,29.73
2018-07-14T14:14:48.972Z,30.37
2018-07-14T14:17:18.094Z,29.53
2018-07-14T14:19:47.348Z,29.99
2018-07-14T14:22:16.450Z,30.94
2018-07-14T14:24:45.664Z,29.19
2018-07-14T14:27:14.750Z,31.01
2018-07-14T14:29:44.048Z,31.05
2018-07-14T14:32:13.070Z,32.35
2018-07-14T14:34:42.276Z,31.89
2018-07-14T14:37:11.408Z,33.91
2018-07-14T14:39:40.568Z,35.26
2018-07-14T14:42:09.673Z,36.31
2018-07-14T14:44:38.748Z,38.10
2018-07-14T14:47:07.921Z,37.64
2018-07-14T14:49:36.976Z,35.94
2018-07-14T14:52:06.170Z,37.80
2018-07-14T14:54:35.368Z,39.34
2018-07-14T14:57:04.467Z,40.78
2018-07-14T14:59:33.521Z,40.82
2018-07-14T15:02:02.790Z,41.26
2018-07-14T15:04:31.906Z,41.52
2018-07-14T15:07:01.069Z,42.75
2018-07-14T15:09:30.219Z,42.15
2018-07-14T15:11:59.318Z,43.56
2018-07-14T15:14:28.532Z,43.50
2018-07-14T15:16:57.773Z,43.39
2018-07-14T15:19:26.869Z,43.81
2018-07-14T15:21:56.050Z,43.57
2018-07-14T15:24:25.142Z,43.46
2018-07-14T15:26:54.343Z,44.09
2018-07-14T15:29:23.401Z,44.91
2018-07-14T15:31:52.549Z,44.62
2018-07-14T15:34:21.572Z,45.00
2018-07-14T15:36:51.737Z,44.54
2018-07-14T15:39:20.835Z,45.63
2018-07-14T15:41:49.910Z,48.70
2018-07-14T15:44:18.982Z,48.17
2018-07-14T15:46:48.809Z,51.08
2018-07-14T15:49:17.868Z,57.18
2018-07-14T15:51:47.031Z,58.81
2018-07-14T15:54:16.444Z,60.89
2018-07-14T15:56:45.690Z,61.53
2018-07-14T15:59:14.752Z,61.25
2018-07-14T16:01:43.912Z,62.72
2018-07-14T16:04:13.044Z,60.83
2018-07-14T16:06:42.234Z,56.62
2018-07-14T16:09:11.328Z,61.65
2018-07-14T16:11:41.416Z,62.53
2018-07-14T16:14:10.485Z,63.21
2018-07-14T16:16:39.556Z,63.21
2018-07-14T16:19:08.743Z,65.56
2018-07-14T16:21:37.678Z,65.12
2018-07-14T16:24:06.732Z,64.68
2018-07-14T16:26:35.952Z,61.95
2018-07-14T16:29:05.087Z,63.92
2018-07-14T16:31:37.073Z,61.95
2018-07-14T16:34:06.177Z,60.06
2018-07-14T16:36:35.224Z,60.10
2018-07-14T16:39:06.145Z,58.84
2018-07-14T16:41:35.304Z,58.83
2018-07-14T16:44:04.472Z,59.43
2018-07-14T16:46:33.594Z,60.97
2018-07-14T16:49:02.711Z,62.78
2018-07-14T16:51:31.892Z,62.66
2018-07-14T16:54:01.312Z,62.38
2018-07-14T16:56:30.442Z,61.02
2018-07-14T16:58:59.644Z,61.60
2018-07-14T17:01:28.685Z,61.04
2018-07-14T17:03:57.766Z,61.63
2018-07-14T17:06:26.977Z,62.30
2018-07-14T17:08:56.037Z,61.96
2018-07-14T17:11:25.112Z,61.99
2018-07-14T17:13:54.321Z,62.07
2018-07-14T17:16:23.316Z,61.51
2018-07-14T17:18:52.398Z,62.48
2018-07-14T17:21:21.548Z,62.02
2018-07-14T17:23:50.756Z,63.13
2018-07-14T17:26:19.830Z,62.55
2018-07-14T17:28:49.271Z,63.68
2018-07-14T17:31:18.333Z,62.82
2018-07-14T17:33:47.517Z,60.88
2018-07-14T17:36:16.581Z,61.23
2018-07-14T17:38:45.669Z,60.82
2018-07-14T17:41:14.756Z,61.06
2018-07-14T17:43:43.932Z,62.83
2018-07-14T17:46:13.047Z,62.26
2018-07-14T17:48:42.197Z,62.54
2018-07-14T17:51:11.305Z,62.40
2018-07-14T17:53:40.385Z,62.87
2018-07-14T17:56:09.548Z,62.66
2018-07-14T17:58:38.628Z,62.65
2018-07-14T18:01:07.768Z,62.03
2018-07-14T18:03:36.839Z,59.74
2018-07-14T18:06:05.929Z,60.30
2018-07-14T18:08:35.049Z,60.21
2018-07-14T18:11:05.147Z,60.36
2018-07-14T18:13:34.212Z,60.68
2018-07-14T18:16:03.267Z,59.66
2018-07-14T18:18:32.436Z,60.13
2018-07-14T18:21:01.560Z,60.38
2018-07-14T18:23:30.765Z,60.54
2018-07-14T18:25:59.859Z,60.56
2018-07-14T18:28:29.031Z,60.71
2018-07-14T18:30:58.110Z,61.08
2018-07-14T18:33:27.362Z,62.05
2018-07-14T18:35:56.433Z,62.71
2018-07-14T18:38:25.592Z,63.36
2018-07-14T18:40:54.695Z,64.67
2018-07-14T18:43:23.760Z,64.23
2018-07-14T18:45:52.924Z,64.63
2018-07-14T18:48:22.190Z,65.61
2018-07-14T18:50:51.314Z,65.42
2018-07-14T18:53:20.401Z,65.68
2018-07-14T18:55:49.506Z,65.85
2018-07-14T18:58:18.937Z,66.31
2018-07-14T19:00:48.014Z,67.16
2018-07-14T19:03:17.121Z,66.82
2018-07-14T19:05:46.199Z,67.43
2018-07-14T19:08:15.332Z,67.90
2018-07-14T19:10:44.410Z,68.02
2018-07-14T19:13:13.513Z,68.45
2018-07-14T19:15:42.609Z,68.11
2018-07-14T19:18:11.873Z,69.35
2018-07-14T19:20:41.977Z,69.66
2018-07-14T19:23:11.033Z,69.73
2018-07-14T19:25:40.281Z,69.89
2018-07-14T19:28:09.307Z,70.53
2018-07-14T19:30:38.441Z,70.45
2018-07-14T19:33:07.521Z,70.87
2018-07-14T19:35:36.639Z,71.33
2018-07-14T19:38:05.724Z,71.47
2018-07-14T19:40:34.874Z,71.42
2018-07-14T19:43:03.949Z,71.67
2018-07-14T19:45:33.038Z,71.63
2018-07-14T19:48:02.208Z,72.08
2018-07-14T19:50:31.324Z,72.48
2018-07-14T19:53:00.397Z,73.07
2018-07-14T19:55:30.577Z,72.62
2018-07-14T19:57:58.630Z,72.62
2018-07-14T20:00:28.742Z,72.67
2018-07-14T20:02:57.831Z,73.21
2018-07-14T20:05:27.098Z,73.28
2018-07-14T20:07:56.257Z,73.47
2018-07-14T20:10:25.453Z,73.16
2018-07-14T20:12:55.824Z,73.29
2018-07-14T20:15:25.768Z,73.65
2018-07-14T20:17:54.907Z,73.78
2018-07-14T20:20:23.988Z,73.62
2018-07-14T20:22:53.298Z,74.03
2018-07-14T20:25:22.578Z,73.81
2018-07-14T20:27:51.685Z,74.39
2018-07-14T20:30:20.836Z,74.30
2018-07-14T20:32:49.963Z,74.47
2018-07-14T20:35:19.133Z,74.69
2018-07-14T20:37:48.281Z,75.03
2018-07-14T20:40:17.397Z,75.09
2018-07-14T20:42:46.605Z,75.38
2018-07-14T20:45:15.673Z,74.74
2018-07-14T20:47:44.811Z,75.18
2018-07-14T20:51:17.418Z,74.43
2018-07-14T20:53:46.492Z,74.98
2018-07-14T20:56:15.590Z,74.73
2018-07-14T20:58:44.810Z,74.99
2018-07-14T21:01:13.952Z,75.58
2018-07-14T21:03:43.033Z,75.45
2018-07-14T21:06:12.158Z,75.78
2018-07-14T21:08:41.296Z,75.94
2018-07-14T21:11:10.367Z,76.23
2018-07-14T21:13:39.450Z,75.92
2018-07-14T21:16:08.518Z,76.00
2018-07-14T21:18:37.711Z,75.67
2018-07-14T21:21:06.810Z,75.96
2018-07-14T21:23:35.927Z,76.13
2018-07-14T21:26:05.000Z,76.03
2018-07-14T21:28:34.177Z,76.09
2018-07-14T21:31:03.535Z,76.86
2018-07-14T21:33:32.666Z,76.22
2018-07-14T21:36:01.777Z,75.88
2018-07-14T21:38:30.909Z,76.27
2018-07-14T21:41:00.104Z,76.29
2018-07-14T21:43:29.177Z,75.96
2018-07-14T21:45:58.301Z,76.35
2018-07-14T21:48:27.381Z,76.94
2018-07-14T21:50:56.503Z,76.69
2018-07-14T21:53:25.614Z,76.54
2018-07-14T21:55:54.814Z,76.79
2018-07-14T21:58:23.921Z,76.92
2018-07-14T22:01:03.563Z,77.65
2018-07-14T22:03:33.638Z,77.42
2018-07-14T22:06:03.176Z,77.34
2018-07-14T22:08:32.560Z,77.68
2018-07-14T22:11:01.978Z,77.90
2018-07-14T22:13:31.112Z,77.80
2018-07-14T22:16:00.188Z,77.67
2018-07-14T22:18:29.359Z,77.74
2018-07-14T22:20:58.433Z,78.02
2018-07-14T22:23:28.494Z,78.15
2018-07-14T22:25:57.591Z,77.93
2018-07-14T22:28:26.730Z,78.50
2018-07-14T22:30:55.809Z,78.44
2018-07-14T22:33:24.960Z,78.04
2018-07-14T22:35:54.064Z,77.91
2018-07-14T22:38:23.197Z,77.87
2018-07-14T22:40:52.285Z,78.44
2018-07-14T22:43:21.361Z,78.68
2018-07-14T22:45:50.430Z,78.84
2018-07-14T22:48:19.613Z,78.87
2018-07-14T22:50:48.709Z,78.80
2018-07-14T22:53:17.901Z,78.86
2018-07-14T22:55:46.993Z,78.85
2018-07-14T22:58:16.193Z,78.82
2018-07-14T23:00:45.273Z,79.30
2018-07-14T23:03:14.385Z,79.66
2018-07-14T23:05:43.473Z,80.12
2018-07-14T23:08:12.574Z,79.99
2018-07-14T23:10:41.672Z,79.85
2018-07-14T23:13:10.753Z,79.65
2018-07-14T23:15:39.869Z,79.85
2018-07-14T23:18:09.096Z,80.38
2018-07-14T23:20:38.169Z,80.24
2018-07-14T23:23:07.919Z,80.18
2018-07-14T23:25:37.047Z,79.92
2018-07-14T23:28:06.650Z,80.74
2018-07-14T23:30:35.733Z,80.74
2018-07-14T23:33:04.824Z,81.31
2018-07-14T23:35:33.924Z,81.09
2018-07-14T23:38:03.056Z,81.44
2018-07-14T23:40:32.230Z,81.46
2018-07-14T23:43:01.304Z,80.95
2018-07-14T23:45:30.361Z,81.69
2018-07-14T23:47:59.557Z,80.96
2018-07-14T23:50:28.689Z,80.83
2018-07-14T23:52:57.750Z,81.00
2018-07-14T23:55:26.920Z,81.68
2018-07-14T23:57:56.005Z,81.69
